sensor_id;sensor_type;location;lat;lon;timestamp;temperature;humidity
56046;DHT22;41913;51.030;3.706;2023-02-15T00:00:31;19.90;77.40
56046;DHT22;41913;51.030;3.706;2023-02-15T00:02:57;19.90;77.50
56046;DHT22;41913;51.030;3.706;2023-02-15T00:05:23;19.90;77.60
56046;DHT22;41913;51.030;3.706;2023-02-15T00:07:48;19.80;77.50
56046;DHT22;41913;51.030;3.706;2023-02-15T00:10:14;19.80;77.60
56046;DHT22;41913;51.030;3.706;2023-02-15T00:12:40;19.80;77.60
56046;DHT22;41913;51.030;3.706;2023-02-15T00:15:05;19.70;77.60
56046;DHT22;41913;51.030;3.706;2023-02-15T00:17:31;19.70;77.60
56046;DHT22;41913;51.030;3.706;2023-02-15T00:19:57;19.70;77.60
56046;DHT22;41913;51.030;3.706;2023-02-15T00:22:22;19.70;77.60
56046;DHT22;41913;51.030;3.706;2023-02-15T00:24:48;19.70;77.60
56046;DHT22;41913;51.030;3.706;2023-02-15T00:27:15;19.60;77.60
56046;DHT22;41913;51.030;3.706;2023-02-15T00:29:41;19.60;77.60
56046;DHT22;41913;51.030;3.706;2023-02-15T00:32:06;19.60;77.60
56046;DHT22;41913;51.030;3.706;2023-02-15T00:34:32;19.60;77.60
56046;DHT22;41913;51.030;3.706;2023-02-15T00:36:58;19.50;77.60
56046;DHT22;41913;51.030;3.706;2023-02-15T00:39:23;19.50;77.60
56046;DHT22;41913;51.030;3.706;2023-02-15T00:41:49;19.50;77.60
56046;DHT22;41913;51.030;3.706;2023-02-15T00:44:16;19.50;77.60
56046;DHT22;41913;51.030;3.706;2023-02-15T00:46:42;19.50;77.60
56046;DHT22;41913;51.030;3.706;2023-02-15T00:49:07;19.50;77.60
56046;DHT22;41913;51.030;3.706;2023-02-15T00:51:33;19.40;77.60
56046;DHT22;41913;51.030;3.706;2023-02-15T00:53:59;19.40;77.60
56046;DHT22;41913;51.030;3.706;2023-02-15T00:56:25;19.40;77.60
56046;DHT22;41913;51.030;3.706;2023-02-15T00:58:50;19.40;77.60
56046;DHT22;41913;51.030;3.706;2023-02-15T01:01:18;19.40;77.60
56046;DHT22;41913;51.030;3.706;2023-02-15T01:03:44;19.40;77.60
56046;DHT22;41913;51.030;3.706;2023-02-15T01:06:12;19.30;77.60
56046;DHT22;41913;51.030;3.706;2023-02-15T01:08:40;19.30;77.60
56046;DHT22;41913;51.030;3.706;2023-02-15T01:11:11;19.30;77.60
56046;DHT22;41913;51.030;3.706;2023-02-15T01:13:37;19.30;77.60
56046;DHT22;41913;51.030;3.706;2023-02-15T01:16:03;19.30;77.60
56046;DHT22;41913;51.030;3.706;2023-02-15T01:18:30;19.20;77.50
56046;DHT22;41913;51.030;3.706;2023-02-15T01:20:56;19.30;77.60
56046;DHT22;41913;51.030;3.706;2023-02-15T01:23:23;19.30;77.60
56046;DHT22;41913;51.030;3.706;2023-02-15T01:25:48;19.20;77.60
56046;DHT22;41913;51.030;3.706;2023-02-15T01:28:14;19.20;77.50
56046;DHT22;41913;51.030;3.706;2023-02-15T01:30:39;19.20;77.50
56046;DHT22;41913;51.030;3.706;2023-02-15T01:33:05;19.20;77.50
56046;DHT22;41913;51.030;3.706;2023-02-15T01:35:31;19.10;77.50
56046;DHT22;41913;51.030;3.706;2023-02-15T01:37:58;19.20;77.50
56046;DHT22;41913;51.030;3.706;2023-02-15T01:40:24;19.10;77.50
56046;DHT22;41913;51.030;3.706;2023-02-15T01:42:54;19.10;77.50
56046;DHT22;41913;51.030;3.706;2023-02-15T01:45:31;19.10;77.50
56046;DHT22;41913;51.030;3.706;2023-02-15T01:48:05;19.10;77.50
56046;DHT22;41913;51.030;3.706;2023-02-15T01:50:44;19.10;77.50
56046;DHT22;41913;51.030;3.706;2023-02-15T01:53:28;19.10;78.00
56046;DHT22;41913;51.030;3.706;2023-02-15T01:56:02;19.10;77.50
56046;DHT22;41913;51.030;3.706;2023-02-15T01:58:30;19.10;77.50
56046;DHT22;41913;51.030;3.706;2023-02-15T02:00:59;19.10;77.50
56046;DHT22;41913;51.030;3.706;2023-02-15T02:06:14;19.00;77.40
56046;DHT22;41913;51.030;3.706;2023-02-15T02:08:41;19.00;77.50
56046;DHT22;41913;51.030;3.706;2023-02-15T02:11:11;18.90;77.40
56046;DHT22;41913;51.030;3.706;2023-02-15T02:13:38;19.00;77.50
56046;DHT22;41913;51.030;3.706;2023-02-15T02:16:16;19.00;77.50
56046;DHT22;41913;51.030;3.706;2023-02-15T02:27:23;18.90;77.50
56046;DHT22;41913;51.030;3.706;2023-02-15T02:38:33;18.80;77.40
56046;DHT22;41913;51.030;3.706;2023-02-15T02:46:30;18.80;77.40
56046;DHT22;41913;51.030;3.706;2023-02-15T02:48:58;18.80;77.50
56046;DHT22;41913;51.030;3.706;2023-02-15T02:51:23;18.70;77.40
56046;DHT22;41913;51.030;3.706;2023-02-15T02:53:52;18.80;77.50
56046;DHT22;41913;51.030;3.706;2023-02-15T02:56:29;18.80;77.50
56046;DHT22;41913;51.030;3.706;2023-02-15T02:59:02;18.70;77.40
56046;DHT22;41913;51.030;3.706;2023-02-15T03:01:33;18.70;77.40
56046;DHT22;41913;51.030;3.706;2023-02-15T03:04:04;18.70;77.40
56046;DHT22;41913;51.030;3.706;2023-02-15T03:07:09;18.70;77.40
56046;DHT22;41913;51.030;3.706;2023-02-15T03:09:39;18.70;77.40
56046;DHT22;41913;51.030;3.706;2023-02-15T03:12:11;18.70;77.40
56046;DHT22;41913;51.030;3.706;2023-02-15T03:14:40;18.70;77.40
56046;DHT22;41913;51.030;3.706;2023-02-15T03:17:07;18.70;77.40
56046;DHT22;41913;51.030;3.706;2023-02-15T03:19:35;18.70;77.40
56046;DHT22;41913;51.030;3.706;2023-02-15T03:22:15;18.70;77.40
56046;DHT22;41913;51.030;3.706;2023-02-15T03:25:01;18.70;77.40
56046;DHT22;41913;51.030;3.706;2023-02-15T03:27:38;18.70;77.40
56046;DHT22;41913;51.030;3.706;2023-02-15T03:30:05;18.60;77.30
56046;DHT22;41913;51.030;3.706;2023-02-15T03:32:33;18.60;77.30
56046;DHT22;41913;51.030;3.706;2023-02-15T03:35:00;18.60;77.30
56046;DHT22;41913;51.030;3.706;2023-02-15T03:37:46;18.60;77.30
56046;DHT22;41913;51.030;3.706;2023-02-15T03:40:16;18.60;77.30
56046;DHT22;41913;51.030;3.706;2023-02-15T03:45:57;18.50;77.20
56046;DHT22;41913;51.030;3.706;2023-02-15T03:48:39;18.50;77.20
56046;DHT22;41913;51.030;3.706;2023-02-15T03:51:09;18.50;77.20
56046;DHT22;41913;51.030;3.706;2023-02-15T03:53:56;18.50;77.20
56046;DHT22;41913;51.030;3.706;2023-02-15T03:56:22;18.50;77.20
56046;DHT22;41913;51.030;3.706;2023-02-15T03:58:48;18.50;77.20
56046;DHT22;41913;51.030;3.706;2023-02-15T04:04:35;18.40;77.10
56046;DHT22;41913;51.030;3.706;2023-02-15T04:07:03;18.40;77.10
56046;DHT22;41913;51.030;3.706;2023-02-15T04:09:28;18.40;77.10
56046;DHT22;41913;51.030;3.706;2023-02-15T04:12:13;18.30;77.10
56046;DHT22;41913;51.030;3.706;2023-02-15T04:14:38;18.40;77.10
56046;DHT22;41913;51.030;3.706;2023-02-15T04:17:23;18.40;77.10
56046;DHT22;41913;51.030;3.706;2023-02-15T04:19:50;18.40;77.10
56046;DHT22;41913;51.030;3.706;2023-02-15T04:22:34;18.30;77.00
56046;DHT22;41913;51.030;3.706;2023-02-15T04:25:18;18.40;77.60
56046;DHT22;41913;51.030;3.706;2023-02-15T04:27:48;18.30;77.00
56046;DHT22;41913;51.030;3.706;2023-02-15T04:30:15;18.30;77.00
56046;DHT22;41913;51.030;3.706;2023-02-15T04:32:41;18.30;77.00
56046;DHT22;41913;51.030;3.706;2023-02-15T04:35:07;18.30;77.60
56046;DHT22;41913;51.030;3.706;2023-02-15T04:37:35;18.30;77.00
56046;DHT22;41913;51.030;3.706;2023-02-15T04:40:01;18.30;77.00
56046;DHT22;41913;51.030;3.706;2023-02-15T04:42:28;18.20;77.00
56046;DHT22;41913;51.030;3.706;2023-02-15T04:44:54;18.20;77.00
56046;DHT22;41913;51.030;3.706;2023-02-15T04:47:19;18.20;77.00
56046;DHT22;41913;51.030;3.706;2023-02-15T04:49:45;18.20;77.00
56046;DHT22;41913;51.030;3.706;2023-02-15T04:52:11;18.20;77.00
56046;DHT22;41913;51.030;3.706;2023-02-15T04:54:38;18.20;77.00
56046;DHT22;41913;51.030;3.706;2023-02-15T04:57:04;18.20;77.00
56046;DHT22;41913;51.030;3.706;2023-02-15T04:59:30;18.20;76.90
56046;DHT22;41913;51.030;3.706;2023-02-15T05:01:56;18.20;76.90
56046;DHT22;41913;51.030;3.706;2023-02-15T05:04:23;18.20;76.90
56046;DHT22;41913;51.030;3.706;2023-02-15T05:06:50;18.20;76.90
56046;DHT22;41913;51.030;3.706;2023-02-15T05:09:16;18.20;77.00
56046;DHT22;41913;51.030;3.706;2023-02-15T05:11:42;18.20;76.90
56046;DHT22;41913;51.030;3.706;2023-02-15T05:14:07;18.10;76.90
56046;DHT22;41913;51.030;3.706;2023-02-15T05:16:33;18.10;76.90
56046;DHT22;41913;51.030;3.706;2023-02-15T05:18:59;18.10;76.80
56046;DHT22;41913;51.030;3.706;2023-02-15T05:21:25;18.10;77.40
56046;DHT22;41913;51.030;3.706;2023-02-15T05:23:51;18.10;76.90
56046;DHT22;41913;51.030;3.706;2023-02-15T05:26:19;18.10;76.80
56046;DHT22;41913;51.030;3.706;2023-02-15T05:29:04;18.10;76.80
56046;DHT22;41913;51.030;3.706;2023-02-15T05:31:30;18.10;76.80
56046;DHT22;41913;51.030;3.706;2023-02-15T05:33:57;18.10;76.80
56046;DHT22;41913;51.030;3.706;2023-02-15T05:36:23;18.10;76.80
56046;DHT22;41913;51.030;3.706;2023-02-15T05:38:49;18.10;76.80
56046;DHT22;41913;51.030;3.706;2023-02-15T05:41:15;18.00;77.30
56046;DHT22;41913;51.030;3.706;2023-02-15T05:43:42;18.00;76.80
56046;DHT22;41913;51.030;3.706;2023-02-15T05:46:08;18.10;76.80
56046;DHT22;41913;51.030;3.706;2023-02-15T05:48:34;18.00;76.80
56046;DHT22;41913;51.030;3.706;2023-02-15T05:53:33;18.00;76.70
56046;DHT22;41913;51.030;3.706;2023-02-15T05:56:01;18.00;76.70
56046;DHT22;41913;51.030;3.706;2023-02-15T05:58:30;18.00;76.70
56046;DHT22;41913;51.030;3.706;2023-02-15T06:00:56;18.00;76.70
56046;DHT22;41913;51.030;3.706;2023-02-15T06:03:23;18.00;76.70
56046;DHT22;41913;51.030;3.706;2023-02-15T06:05:50;18.00;76.70
56046;DHT22;41913;51.030;3.706;2023-02-15T06:08:15;18.00;76.70
56046;DHT22;41913;51.030;3.706;2023-02-15T06:10:41;17.90;76.70
56046;DHT22;41913;51.030;3.706;2023-02-15T06:13:07;17.90;76.70
56046;DHT22;41913;51.030;3.706;2023-02-15T06:15:33;17.90;76.70
56046;DHT22;41913;51.030;3.706;2023-02-15T06:17:59;17.90;76.60
56046;DHT22;41913;51.030;3.706;2023-02-15T06:20:25;17.90;76.70
56046;DHT22;41913;51.030;3.706;2023-02-15T06:22:51;18.00;76.70
56046;DHT22;41913;51.030;3.706;2023-02-15T06:25:18;17.90;76.60
56046;DHT22;41913;51.030;3.706;2023-02-15T06:27:44;17.90;76.60
56046;DHT22;41913;51.030;3.706;2023-02-15T06:30:11;17.90;76.60
56046;DHT22;41913;51.030;3.706;2023-02-15T06:32:37;17.90;76.60
56046;DHT22;41913;51.030;3.706;2023-02-15T06:35:05;17.90;76.70
56046;DHT22;41913;51.030;3.706;2023-02-15T06:37:31;18.00;76.80
56046;DHT22;41913;51.030;3.706;2023-02-15T06:39:56;18.10;76.80
56046;DHT22;41913;51.030;3.706;2023-02-15T06:42:23;18.20;76.90
56046;DHT22;41913;51.030;3.706;2023-02-15T06:44:49;18.30;77.10
56046;DHT22;41913;51.030;3.706;2023-02-15T06:47:15;18.40;77.70
56046;DHT22;41913;51.030;3.706;2023-02-15T06:49:40;18.60;78.50
56046;DHT22;41913;51.030;3.706;2023-02-15T06:52:06;18.70;79.00
56046;DHT22;41913;51.030;3.706;2023-02-15T06:54:31;18.80;79.10
56046;DHT22;41913;51.030;3.706;2023-02-15T06:56:57;18.90;79.10
56046;DHT22;41913;51.030;3.706;2023-02-15T06:59:23;18.90;79.00
56046;DHT22;41913;51.030;3.706;2023-02-15T07:01:48;19.00;78.90
56046;DHT22;41913;51.030;3.706;2023-02-15T07:04:15;19.00;78.60
56046;DHT22;41913;51.030;3.706;2023-02-15T07:06:40;19.10;78.40
56046;DHT22;41913;51.030;3.706;2023-02-15T07:09:06;19.10;78.10
56046;DHT22;41913;51.030;3.706;2023-02-15T07:11:32;19.20;78.00
56046;DHT22;41913;51.030;3.706;2023-02-15T07:14:17;19.30;77.80
56046;DHT22;41913;51.030;3.706;2023-02-15T07:16:43;19.30;77.60
56046;DHT22;41913;51.030;3.706;2023-02-15T07:19:08;19.30;77.60
56046;DHT22;41913;51.030;3.706;2023-02-15T07:21:35;19.20;77.40
56046;DHT22;41913;51.030;3.706;2023-02-15T07:24:01;19.20;77.20
56046;DHT22;41913;51.030;3.706;2023-02-15T07:26:27;19.10;77.00
56046;DHT22;41913;51.030;3.706;2023-02-15T07:28:53;19.00;76.80
56046;DHT22;41913;51.030;3.706;2023-02-15T07:31:18;18.90;76.60
56046;DHT22;41913;51.030;3.706;2023-02-15T07:33:44;18.90;76.40
56046;DHT22;41913;51.030;3.706;2023-02-15T07:36:11;18.80;76.30
56046;DHT22;41913;51.030;3.706;2023-02-15T07:38:39;18.70;76.10
56046;DHT22;41913;51.030;3.706;2023-02-15T07:41:07;18.60;75.90
56046;DHT22;41913;51.030;3.706;2023-02-15T07:43:35;18.50;75.70
56046;DHT22;41913;51.030;3.706;2023-02-15T07:46:03;18.50;75.60
56046;DHT22;41913;51.030;3.706;2023-02-15T07:48:30;18.40;75.50
56046;DHT22;41913;51.030;3.706;2023-02-15T07:51:04;18.30;75.40
56046;DHT22;41913;51.030;3.706;2023-02-15T07:53:31;18.30;75.30
56046;DHT22;41913;51.030;3.706;2023-02-15T07:56:09;18.20;75.20
56046;DHT22;41913;51.030;3.706;2023-02-15T07:58:35;18.10;75.10
56046;DHT22;41913;51.030;3.706;2023-02-15T08:01:30;18.00;75.00
56046;DHT22;41913;51.030;3.706;2023-02-15T08:03:57;18.00;74.90
56046;DHT22;41913;51.030;3.706;2023-02-15T08:06:25;17.90;74.90
56046;DHT22;41913;51.030;3.706;2023-02-15T08:08:51;17.90;74.80
56046;DHT22;41913;51.030;3.706;2023-02-15T08:11:21;17.80;74.70
56046;DHT22;41913;51.030;3.706;2023-02-15T08:14:16;17.80;74.70
56046;DHT22;41913;51.030;3.706;2023-02-15T08:16:45;17.70;74.60
56046;DHT22;41913;51.030;3.706;2023-02-15T08:19:15;17.70;74.60
56046;DHT22;41913;51.030;3.706;2023-02-15T08:21:49;17.60;74.50
56046;DHT22;41913;51.030;3.706;2023-02-15T08:24:17;17.60;74.50
56046;DHT22;41913;51.030;3.706;2023-02-15T08:26:43;17.50;74.40
56046;DHT22;41913;51.030;3.706;2023-02-15T08:29:14;17.50;74.40
56046;DHT22;41913;51.030;3.706;2023-02-15T08:31:40;17.40;74.40
56046;DHT22;41913;51.030;3.706;2023-02-15T08:34:08;17.40;74.40
56046;DHT22;41913;51.030;3.706;2023-02-15T08:36:34;17.40;74.40
56046;DHT22;41913;51.030;3.706;2023-02-15T08:39:03;17.40;74.40
56046;DHT22;41913;51.030;3.706;2023-02-15T08:41:34;17.40;74.50
56046;DHT22;41913;51.030;3.706;2023-02-15T08:44:02;17.40;74.50
56046;DHT22;41913;51.030;3.706;2023-02-15T08:46:30;17.40;74.60
56046;DHT22;41913;51.030;3.706;2023-02-15T08:48:56;17.50;74.60
56046;DHT22;41913;51.030;3.706;2023-02-15T08:51:27;17.50;74.70
56046;DHT22;41913;51.030;3.706;2023-02-15T08:53:59;17.60;74.80
56046;DHT22;41913;51.030;3.706;2023-02-15T08:56:28;17.60;74.90
56046;DHT22;41913;51.030;3.706;2023-02-15T08:58:54;17.60;75.10
56046;DHT22;41913;51.030;3.706;2023-02-15T09:01:23;17.60;75.20
56046;DHT22;41913;51.030;3.706;2023-02-15T09:03:51;17.70;75.30
56046;DHT22;41913;51.030;3.706;2023-02-15T09:06:19;17.70;75.40
56046;DHT22;41913;51.030;3.706;2023-02-15T09:08:45;17.70;75.50
56046;DHT22;41913;51.030;3.706;2023-02-15T09:11:22;17.70;75.50
56046;DHT22;41913;51.030;3.706;2023-02-15T09:13:51;17.70;75.60
56046;DHT22;41913;51.030;3.706;2023-02-15T09:16:18;17.70;75.70
56046;DHT22;41913;51.030;3.706;2023-02-15T09:18:43;17.70;75.70
56046;DHT22;41913;51.030;3.706;2023-02-15T09:21:12;17.70;75.80
56046;DHT22;41913;51.030;3.706;2023-02-15T09:23:44;17.70;75.90
56046;DHT22;41913;51.030;3.706;2023-02-15T09:26:13;17.70;75.90
56046;DHT22;41913;51.030;3.706;2023-02-15T09:28:39;17.70;76.00
56046;DHT22;41913;51.030;3.706;2023-02-15T09:31:16;17.70;76.00
56046;DHT22;41913;51.030;3.706;2023-02-15T09:33:44;17.70;76.00
56046;DHT22;41913;51.030;3.706;2023-02-15T09:36:23;17.70;76.10
56046;DHT22;41913;51.030;3.706;2023-02-15T09:38:57;17.70;76.10
56046;DHT22;41913;51.030;3.706;2023-02-15T09:52:41;17.70;76.30
56046;DHT22;41913;51.030;3.706;2023-02-15T10:00:57;17.70;76.40
56046;DHT22;41913;51.030;3.706;2023-02-15T10:03:38;17.60;76.40
56046;DHT22;41913;51.030;3.706;2023-02-15T10:11:55;17.60;76.50
56046;DHT22;41913;51.030;3.706;2023-02-15T10:20:43;17.70;76.60
56046;DHT22;41913;51.030;3.706;2023-02-15T10:28:20;17.60;76.70
56046;DHT22;41913;51.030;3.706;2023-02-15T10:30:50;17.60;76.70
56046;DHT22;41913;51.030;3.706;2023-02-15T10:33:30;17.60;76.80
56046;DHT22;41913;51.030;3.706;2023-02-15T10:38:40;17.60;76.80
56046;DHT22;41913;51.030;3.706;2023-02-15T10:44:21;17.60;76.80
56046;DHT22;41913;51.030;3.706;2023-02-15T10:58:03;17.50;76.70
56046;DHT22;41913;51.030;3.706;2023-02-15T11:08:29;17.60;76.90
56046;DHT22;41913;51.030;3.706;2023-02-15T11:11:01;17.50;76.80
56046;DHT22;41913;51.030;3.706;2023-02-15T11:13:32;17.50;76.80
56046;DHT22;41913;51.030;3.706;2023-02-15T11:16:11;17.60;76.90
56046;DHT22;41913;51.030;3.706;2023-02-15T11:18:43;17.60;76.90
56046;DHT22;41913;51.030;3.706;2023-02-15T11:21:31;17.60;76.90
56046;DHT22;41913;51.030;3.706;2023-02-15T11:23:59;17.50;76.90
56046;DHT22;41913;51.030;3.706;2023-02-15T11:26:34;17.60;77.00
56046;DHT22;41913;51.030;3.706;2023-02-15T11:29:22;17.50;77.00
56046;DHT22;41913;51.030;3.706;2023-02-15T11:32:17;17.50;76.90
56046;DHT22;41913;51.030;3.706;2023-02-15T11:34:53;17.50;77.00
56046;DHT22;41913;51.030;3.706;2023-02-15T11:37:40;17.50;77.00
56046;DHT22;41913;51.030;3.706;2023-02-15T11:40:48;17.50;77.00
56046;DHT22;41913;51.030;3.706;2023-02-15T11:43:28;17.50;77.00
56046;DHT22;41913;51.030;3.706;2023-02-15T11:45:56;17.50;77.10
56046;DHT22;41913;51.030;3.706;2023-02-15T11:48:22;17.50;77.10
56046;DHT22;41913;51.030;3.706;2023-02-15T11:50:48;17.50;77.10
56046;DHT22;41913;51.030;3.706;2023-02-15T11:53:20;17.50;77.10
56046;DHT22;41913;51.030;3.706;2023-02-15T11:55:53;17.50;77.10
56046;DHT22;41913;51.030;3.706;2023-02-15T12:03:43;17.50;77.10
56046;DHT22;41913;51.030;3.706;2023-02-15T12:06:28;17.50;77.10
56046;DHT22;41913;51.030;3.706;2023-02-15T12:09:07;17.50;77.10
56046;DHT22;41913;51.030;3.706;2023-02-15T12:11:39;17.50;77.10
56046;DHT22;41913;51.030;3.706;2023-02-15T12:14:13;17.50;77.20
56046;DHT22;41913;51.030;3.706;2023-02-15T12:16:51;17.50;77.20
56046;DHT22;41913;51.030;3.706;2023-02-15T12:19:31;17.50;77.20
56046;DHT22;41913;51.030;3.706;2023-02-15T12:22:00;17.50;77.20
56046;DHT22;41913;51.030;3.706;2023-02-15T12:24:29;17.50;77.20
56046;DHT22;41913;51.030;3.706;2023-02-15T12:27:49;17.50;77.20
56046;DHT22;41913;51.030;3.706;2023-02-15T12:30:51;17.50;77.70
56046;DHT22;41913;51.030;3.706;2023-02-15T12:35:57;17.50;77.20
56046;DHT22;41913;51.030;3.706;2023-02-15T12:38:27;17.50;77.30
56046;DHT22;41913;51.030;3.706;2023-02-15T12:41:00;17.50;77.30
56046;DHT22;41913;51.030;3.706;2023-02-15T12:43:33;17.60;77.40
56046;DHT22;41913;51.030;3.706;2023-02-15T12:46:25;17.60;77.40
56046;DHT22;41913;51.030;3.706;2023-02-15T12:51:51;17.60;77.40
56046;DHT22;41913;51.030;3.706;2023-02-15T12:54:38;17.60;77.50
56046;DHT22;41913;51.030;3.706;2023-02-15T12:59:52;17.60;77.40
56046;DHT22;41913;51.030;3.706;2023-02-15T13:02:48;17.60;77.30
56046;DHT22;41913;51.030;3.706;2023-02-15T13:05:33;17.60;77.20
56046;DHT22;41913;51.030;3.706;2023-02-15T13:08:14;17.60;77.20
56046;DHT22;41913;51.030;3.706;2023-02-15T13:11:04;17.60;77.10
56046;DHT22;41913;51.030;3.706;2023-02-15T13:13:34;17.50;77.10
56046;DHT22;41913;51.030;3.706;2023-02-15T13:16:11;17.50;77.10
56046;DHT22;41913;51.030;3.706;2023-02-15T13:18:45;17.50;77.10
56046;DHT22;41913;51.030;3.706;2023-02-15T13:21:15;17.60;77.10
56046;DHT22;41913;51.030;3.706;2023-02-15T13:23:53;17.50;77.00
56046;DHT22;41913;51.030;3.706;2023-02-15T13:26:23;17.60;77.10
56046;DHT22;41913;51.030;3.706;2023-02-15T13:28:57;17.60;77.10
56046;DHT22;41913;51.030;3.706;2023-02-15T13:31:27;17.60;77.10
56046;DHT22;41913;51.030;3.706;2023-02-15T13:34:03;17.60;77.10
56046;DHT22;41913;51.030;3.706;2023-02-15T13:36:54;17.60;77.20
56046;DHT22;41913;51.030;3.706;2023-02-15T13:39:34;17.60;77.10
56046;DHT22;41913;51.030;3.706;2023-02-15T13:42:31;17.60;77.20
56046;DHT22;41913;51.030;3.706;2023-02-15T13:50:52;17.60;77.30
56046;DHT22;41913;51.030;3.706;2023-02-15T13:59:46;17.60;77.40
56046;DHT22;41913;51.030;3.706;2023-02-15T14:02:36;17.60;77.40
56046;DHT22;41913;51.030;3.706;2023-02-15T14:15:50;17.70;77.70
56046;DHT22;41913;51.030;3.706;2023-02-15T14:18:27;17.70;77.70
56046;DHT22;41913;51.030;3.706;2023-02-15T14:26:32;17.70;77.80
56046;DHT22;41913;51.030;3.706;2023-02-15T14:29:23;17.70;77.80
56046;DHT22;41913;51.030;3.706;2023-02-15T14:31:54;17.70;77.80
56046;DHT22;41913;51.030;3.706;2023-02-15T14:34:30;17.70;77.80
56046;DHT22;41913;51.030;3.706;2023-02-15T14:37:01;17.70;77.90
56046;DHT22;41913;51.030;3.706;2023-02-15T14:43:00;17.60;77.90
56046;DHT22;41913;51.030;3.706;2023-02-15T14:45:55;17.60;77.90
56046;DHT22;41913;51.030;3.706;2023-02-15T14:48:24;17.60;78.50
56046;DHT22;41913;51.030;3.706;2023-02-15T14:50:51;17.60;78.10
56046;DHT22;41913;51.030;3.706;2023-02-15T15:01:26;17.50;78.10
56046;DHT22;41913;51.030;3.706;2023-02-15T15:03:55;17.60;78.20
56046;DHT22;41913;51.030;3.706;2023-02-15T15:06:33;17.50;78.20
56046;DHT22;41913;51.030;3.706;2023-02-15T15:09:22;17.60;78.20
56046;DHT22;41913;51.030;3.706;2023-02-15T15:11:51;17.60;78.30
56046;DHT22;41913;51.030;3.706;2023-02-15T15:17:02;17.50;78.20
56046;DHT22;41913;51.030;3.706;2023-02-15T15:22:23;17.50;78.30
56046;DHT22;41913;51.030;3.706;2023-02-15T15:25:10;17.50;78.30
56046;DHT22;41913;51.030;3.706;2023-02-15T15:27:48;17.50;78.40
56046;DHT22;41913;51.030;3.706;2023-02-15T15:32:57;17.50;78.40
56046;DHT22;41913;51.030;3.706;2023-02-15T15:47:12;17.50;78.50
56046;DHT22;41913;51.030;3.706;2023-02-15T15:49:46;17.50;78.50
56046;DHT22;41913;51.030;3.706;2023-02-15T15:52:20;17.50;78.50
56046;DHT22;41913;51.030;3.706;2023-02-15T15:54:55;17.50;78.50
56046;DHT22;41913;51.030;3.706;2023-02-15T15:57:32;17.50;78.50
56046;DHT22;41913;51.030;3.706;2023-02-15T15:59:59;17.50;78.50
56046;DHT22;41913;51.030;3.706;2023-02-15T16:02:26;17.50;78.50
56046;DHT22;41913;51.030;3.706;2023-02-15T16:04:53;17.50;78.50
56046;DHT22;41913;51.030;3.706;2023-02-15T16:10:02;17.50;78.80
56046;DHT22;41913;51.030;3.706;2023-02-15T16:12:33;17.50;78.50
56046;DHT22;41913;51.030;3.706;2023-02-15T16:15:33;17.50;78.50
56046;DHT22;41913;51.030;3.706;2023-02-15T16:18:00;17.50;78.50
56046;DHT22;41913;51.030;3.706;2023-02-15T16:20:34;17.50;78.50
56046;DHT22;41913;51.030;3.706;2023-02-15T16:28:49;17.50;78.50
56046;DHT22;41913;51.030;3.706;2023-02-15T16:31:16;17.50;78.70
56046;DHT22;41913;51.030;3.706;2023-02-15T16:33:43;17.50;78.90
56046;DHT22;41913;51.030;3.706;2023-02-15T16:36:21;17.60;79.00
56046;DHT22;41913;51.030;3.706;2023-02-15T16:41:17;17.60;79.40
56046;DHT22;41913;51.030;3.706;2023-02-15T16:43:47;17.60;79.60
56046;DHT22;41913;51.030;3.706;2023-02-15T16:48:49;17.60;80.60
56046;DHT22;41913;51.030;3.706;2023-02-15T16:51:22;17.50;80.20
56046;DHT22;41913;51.030;3.706;2023-02-15T16:53:49;17.50;80.40
56046;DHT22;41913;51.030;3.706;2023-02-15T16:56:15;17.50;80.50
56046;DHT22;41913;51.030;3.706;2023-02-15T16:58:44;17.50;80.60
56046;DHT22;41913;51.030;3.706;2023-02-15T17:01:13;17.50;80.80
56046;DHT22;41913;51.030;3.706;2023-02-15T17:03:41;17.50;80.90
56046;DHT22;41913;51.030;3.706;2023-02-15T17:06:26;17.50;81.00
56046;DHT22;41913;51.030;3.706;2023-02-15T17:08:52;17.50;81.10
56046;DHT22;41913;51.030;3.706;2023-02-15T17:11:40;17.50;81.10
56046;DHT22;41913;51.030;3.706;2023-02-15T17:16:44;17.50;81.20
56046;DHT22;41913;51.030;3.706;2023-02-15T17:19:23;17.50;81.20
56046;DHT22;41913;51.030;3.706;2023-02-15T17:21:54;17.50;81.20
56046;DHT22;41913;51.030;3.706;2023-02-15T17:24:31;17.50;81.20
56046;DHT22;41913;51.030;3.706;2023-02-15T17:27:02;17.50;81.30
56046;DHT22;41913;51.030;3.706;2023-02-15T17:29:38;17.50;81.30
56046;DHT22;41913;51.030;3.706;2023-02-15T17:32:17;17.50;81.30
56046;DHT22;41913;51.030;3.706;2023-02-15T17:39:53;17.50;81.30
56046;DHT22;41913;51.030;3.706;2023-02-15T17:42:19;17.50;81.30
56046;DHT22;41913;51.030;3.706;2023-02-15T17:44:45;17.40;81.30
56046;DHT22;41913;51.030;3.706;2023-02-15T17:47:16;17.50;81.40
56046;DHT22;41913;51.030;3.706;2023-02-15T17:49:43;17.40;81.30
56046;DHT22;41913;51.030;3.706;2023-02-15T17:52:12;17.40;81.30
56046;DHT22;41913;51.030;3.706;2023-02-15T17:54:39;17.40;81.80
56046;DHT22;41913;51.030;3.706;2023-02-15T17:57:24;17.40;81.30
56046;DHT22;41913;51.030;3.706;2023-02-15T17:59:51;17.40;81.30
56046;DHT22;41913;51.030;3.706;2023-02-15T18:02:35;17.50;81.30
56046;DHT22;41913;51.030;3.706;2023-02-15T18:05:20;17.40;81.30
56046;DHT22;41913;51.030;3.706;2023-02-15T18:08:10;17.40;81.40
56046;DHT22;41913;51.030;3.706;2023-02-15T18:10:55;17.40;81.50
56046;DHT22;41913;51.030;3.706;2023-02-15T18:13:39;17.40;81.50
56046;DHT22;41913;51.030;3.706;2023-02-15T18:16:05;17.40;81.50
56046;DHT22;41913;51.030;3.706;2023-02-15T18:18:30;17.40;81.40
56046;DHT22;41913;51.030;3.706;2023-02-15T18:20:56;17.40;81.90
56046;DHT22;41913;51.030;3.706;2023-02-15T18:23:22;17.40;81.30
56046;DHT22;41913;51.030;3.706;2023-02-15T18:25:47;17.40;81.20
56046;DHT22;41913;51.030;3.706;2023-02-15T18:28:13;17.50;81.20
56046;DHT22;41913;51.030;3.706;2023-02-15T18:30:39;17.50;81.10
56046;DHT22;41913;51.030;3.706;2023-02-15T18:33:32;17.50;81.10
56046;DHT22;41913;51.030;3.706;2023-02-15T18:36:00;17.50;81.10
56046;DHT22;41913;51.030;3.706;2023-02-15T18:38:26;17.60;81.20
56046;DHT22;41913;51.030;3.706;2023-02-15T18:40:52;17.60;81.20
56046;DHT22;41913;51.030;3.706;2023-02-15T18:43:18;17.60;81.30
56046;DHT22;41913;51.030;3.706;2023-02-15T18:45:43;17.60;81.30
56046;DHT22;41913;51.030;3.706;2023-02-15T18:48:09;17.60;81.30
56046;DHT22;41913;51.030;3.706;2023-02-15T18:50:36;17.60;81.30
56046;DHT22;41913;51.030;3.706;2023-02-15T18:53:03;17.60;81.30
56046;DHT22;41913;51.030;3.706;2023-02-15T18:55:30;17.60;81.20
56046;DHT22;41913;51.030;3.706;2023-02-15T18:58:00;17.60;81.10
56046;DHT22;41913;51.030;3.706;2023-02-15T19:00:28;17.60;81.10
56046;DHT22;41913;51.030;3.706;2023-02-15T19:02:55;17.60;81.10